Time;durP1;ratioP1;P1;durP2;ratioP2;P2;SDS_P1;SDS_P2;PMS_P1;PMS_P2;Temp;Humidity;BMP_temperature;BMP_pressure;BME280_temperature;BME280_humidity;BME280_pressure;Samples;Min_cycle;Max_cycle;Signal;HPM_P1;HPM_P2
2022/11/21 00:02:00;;;;;;;26.10;16.83;;;;;;;;;;5018286;28;21267;-55
2022/11/21 00:04:26;;;;;;;23.98;16.63;;;;;;;;;;5016026;28;20052;-56
2022/11/21 00:06:52;;;;;;;24.50;16.65;;;;;;;;;;5014728;28;20056;-55
2022/11/21 00:09:18;;;;;;;25.98;16.77;;;;;;;;;;5015360;28;20156;-55
2022/11/21 00:11:45;;;;;;;23.35;15.82;;;;;;;;;;5017733;28;20049;-56
2022/11/21 00:14:11;;;;;;;25.33;16.20;;;;;;;;;;5018082;28;20052;-54
2022/11/21 00:16:37;;;;;;;25.75;16.30;;;;;;;;;;5017405;28;20466;-56
2022/11/21 00:19:03;;;;;;;23.80;16.45;;;;;;;;;;5017128;28;20136;-55
2022/11/21 00:21:29;;;;;;;25.40;17.10;;;;;;;;;;5018151;28;20072;-56
2022/11/21 00:23:55;;;;;;;25.33;17.10;;;;;;;;;;5017676;28;20049;-56
2022/11/21 00:26:21;;;;;;;27.90;16.65;;;;;;;;;;5018397;28;20545;-55
2022/11/21 00:28:47;;;;;;;24.00;15.75;;;;;;;;;;5014872;28;20107;-56
2022/11/21 00:31:21;;;;;;;26.33;16.23;;;1.10;99.90;;;;;;5018929;28;20064;-55
2022/11/21 00:33:47;;;;;;;22.15;15.60;;;;;;;;;;5017443;28;20040;-56
2022/11/21 00:36:13;;;;;;;24.83;16.45;;;;;;;;;;5017377;28;20748;-55
2022/11/21 00:38:39;;;;;;;24.45;14.95;;;;;;;;;;5016800;28;20053;-55
2022/11/21 00:41:06;;;;;;;25.17;15.98;;;;;;;;;;5019530;28;20037;-54
2022/11/21 00:43:32;;;;;;;25.42;15.52;;;;;;;;;;5022658;28;20483;-56
2022/11/21 00:46:00;;;;;;;22.38;14.85;;;;;;;;;;5020084;28;20372;-56
2022/11/21 00:48:26;;;;;;;25.38;15.50;;;;;;;;;;5015941;28;20056;-55
2022/11/21 00:50:52;;;;;;;26.45;15.90;;;;;;;;;;5017029;28;20077;-56
2022/11/21 00:53:18;;;;;;;25.38;15.60;;;;;;;;;;5014166;28;20037;-55
2022/11/21 00:55:44;;;;;;;24.27;16.27;;;;;;;;;;5017843;28;20100;-56
2022/11/21 00:58:10;;;;;;;22.88;15.30;;;;;;;;;;5015903;28;20095;-55
2022/11/21 01:00:36;;;;;;;23.10;14.93;;;;;;;;;;5018736;28;20065;-55
2022/11/21 01:03:02;;;;;;;22.80;15.18;;;;;;;;;;5018238;28;20044;-56
2022/11/21 01:05:31;;;;;;;22.75;14.85;;;0.50;99.90;;;;;;5017382;28;20041;-55
2022/11/21 01:07:58;;;;;;;22.20;15.00;;;;;;;;;;5016688;28;21301;-55
2022/11/21 01:10:24;;;;;;;25.80;15.82;;;;;;;;;;5015597;28;20467;-55
2022/11/21 01:12:50;;;;;;;22.83;14.82;;;;;;;;;;5015243;28;20394;-55
2022/11/21 01:15:16;;;;;;;22.80;15.18;;;;;;;;;;5013865;28;20433;-55
2022/11/21 01:17:42;;;;;;;22.13;14.40;;;;;;;;;;5015488;28;20060;-54
2022/11/21 01:20:08;;;;;;;21.80;14.38;;;;;;;;;;5017741;28;20037;-55
2022/11/21 01:22:34;;;;;;;24.23;15.73;;;;;;;;;;5017017;28;20609;-56
2022/11/21 01:25:00;;;;;;;24.75;15.38;;;;;;;;;;5017065;28;20037;-55
2022/11/21 01:27:26;;;;;;;21.30;14.38;;;;;;;;;;5014550;28;20346;-54
2022/11/21 01:29:52;;;;;;;23.35;16.15;;;;;;;;;;5013888;28;20046;-56
2022/11/21 01:32:18;;;;;;;22.25;15.55;;;;;;;;;;5018000;28;20128;-55
2022/11/21 01:34:44;;;;;;;23.88;14.93;;;;;;;;;;5015545;28;20344;-55
2022/11/21 01:37:10;;;;;;;24.60;15.65;;;;;;;;;;5014988;28;20037;-54
2022/11/21 01:39:37;;;;;;;24.30;15.27;;;;;;;;;;5016801;28;20060;-55
2022/11/21 01:42:03;;;;;;;23.75;13.38;;;;;;;;;;5016303;28;20041;-56
2022/11/21 01:44:48;;;;;;;23.30;15.15;;;;;;;;;;5017274;28;20414;-56
2022/11/21 01:47:14;;;;;;;23.08;14.63;;;;;;;;;;5016156;28;20090;-56
2022/11/21 01:49:40;;;;;;;24.08;14.73;;;;;;;;;;5016529;28;20076;-56
2022/11/21 01:52:19;;;;;;;23.88;14.85;;;;;;;;;;5019135;28;20114;-55
2022/11/21 01:54:49;;;;;;;24.65;14.57;;;;;;;;;;5017413;28;20142;-55
2022/11/21 01:57:15;;;;;;;24.90;15.00;;;;;;;;;;5016082;28;20378;-56
2022/11/21 01:59:41;;;;;;;21.95;13.85;;;;;;;;;;5017870;28;20047;-55
2022/11/21 02:02:08;;;;;;;22.83;14.70;;;;;;;;;;5018257;28;21059;-55
2022/11/21 02:04:34;;;;;;;25.38;15.10;;;;;;;;;;5016955;28;20321;-56
2022/11/21 02:07:04;;;;;;;26.27;15.73;;;-0.80;99.90;;;;;;5019252;28;20064;-55
2022/11/21 02:09:32;;;;;;;23.77;16.05;;;;;;;;;;5014255;28;20080;-55
2022/11/21 02:12:01;;;;;;;24.48;15.88;;;;;;;;;;5014936;28;20641;-55
2022/11/21 02:14:27;;;;;;;23.42;14.88;;;;;;;;;;5016215;28;20041;-55
2022/11/21 02:16:56;;;;;;;23.25;15.00;;;;;;;;;;5021062;28;20502;-55
2022/11/21 02:19:54;;;;;;;23.60;15.00;;;;;;;;;;5020043;28;20049;-54
2022/11/21 02:22:33;;;;;;;25.92;14.98;;;;;;;;;;5003717;28;20056;-55
2022/11/21 02:25:06;;;;;;;22.13;14.02;;;;;;;;;;5017278;28;20524;-55
2022/11/21 02:27:32;;;;;;;25.08;16.20;;;;;;;;;;5019742;28;20053;-56
2022/11/21 02:29:58;;;;;;;26.30;16.08;;;;;;;;;;5021998;28;20045;-55
2022/11/21 02:32:33;;;;;;;25.85;15.57;;;-1.30;99.90;;;;;;5020191;28;20033;-55
2022/11/21 02:34:59;;;;;;;24.95;15.52;;;;;;;;;;5016761;28;20052;-55
2022/11/21 02:37:25;;;;;;;25.58;14.73;;;;;;;;;;5020345;28;20616;-56
2022/11/21 02:39:52;;;;;;;25.85;15.35;;;;;;;;;;5020726;28;20041;-55
2022/11/21 02:42:26;;;;;;;26.73;17.23;;;;;;;;;;5020719;28;20045;-55
2022/11/21 02:45:15;;;;;;;25.60;17.35;;;;;;;;;;5016533;28;20136;-55
2022/11/21 02:47:42;;;;;;;25.55;16.33;;;;;;;;;;5016125;28;20517;-54
2022/11/21 02:50:14;;;;;;;23.08;15.75;;;;;;;;;;5018728;28;20122;-55
2022/11/21 02:52:40;;;;;;;;;;;;;;;;;;5020390;28;20484;-55
2022/11/21 02:55:06;;;;;;;25.80;15.43;;;;;;;;;;5020876;28;19960;-55
2022/11/21 02:57:33;;;;;;;26.25;15.60;;;;;;;;;;5019097;28;20060;-54
2022/11/21 02:59:59;;;;;;;25.58;15.02;;;;;;;;;;5018723;28;20191;-55
2022/11/21 03:02:25;;;;;;;23.40;15.15;;;;;;;;;;5019262;28;20578;-55
2022/11/21 03:04:51;;;;;;;25.30;15.65;;;;;;;;;;5020602;28;20056;-55
2022/11/21 03:07:17;;;;;;;24.42;15.25;;;;;;;;;;5018814;28;20079;-54
2022/11/21 03:09:43;;;;;;;24.70;15.65;;;;;;;;;;5020976;28;20041;-55
2022/11/21 03:12:09;;;;;;;31.25;17.02;;;;;;;;;;5019679;28;20180;-55
2022/11/21 03:14:36;;;;;;;30.13;15.65;;;;;;;;;;5018213;28;20118;-56
2022/11/21 03:17:02;;;;;;;25.00;15.73;;;;;;;;;;5021722;28;20068;-55
2022/11/21 03:19:28;;;;;;;24.27;16.17;;;;;;;;;;5016599;28;20055;-55
2022/11/21 03:21:55;;;;;;;26.92;16.92;;;;;;;;;;5019340;28;20040;-55
2022/11/21 03:24:21;;;;;;;31.73;16.70;;;;;;;;;;5019162;28;20037;-55
2022/11/21 03:26:47;;;;;;;23.48;15.52;;;;;;;;;;5016335;28;20532;-55
2022/11/21 03:29:13;;;;;;;24.75;15.63;;;;;;;;;;5018026;28;20101;-56
2022/11/21 03:31:39;;;;;;;23.48;14.80;;;;;;;;;;5018588;28;20052;-54
2022/11/21 03:34:06;;;;;;;27.63;16.17;;;;;;;;;;5019393;28;21166;-56
2022/11/21 03:36:32;;;;;;;27.80;15.55;;;;;;;;;;5019944;28;20580;-55
2022/11/21 03:38:58;;;;;;;24.10;14.35;;;;;;;;;;5015727;28;20037;-56
2022/11/21 03:41:30;;;;;;;26.45;15.57;;;;;;;;;;5017780;28;20038;-55
2022/11/21 03:43:56;;;;;;;24.33;14.48;;;;;;;;;;5016541;28;20056;-54
2022/11/21 03:46:23;;;;;;;26.10;15.85;;;;;;;;;;5021461;28;20156;-53
2022/11/21 03:48:49;;;;;;;21.95;14.18;;;;;;;;;;5017144;28;20916;-56
2022/11/21 03:51:15;;;;;;;26.45;16.58;;;;;;;;;;5015518;28;20426;-55
2022/11/21 03:53:41;;;;;;;29.33;17.20;;;;;;;;;;5016929;28;20037;-52
2022/11/21 03:56:07;;;;;;;26.65;15.90;;;;;;;;;;5018440;28;20037;-55
2022/11/21 03:58:33;;;;;;;24.67;15.75;;;;;;;;;;5018217;28;20387;-56
2022/11/21 04:00:59;;;;;;;25.98;16.65;;;;;;;;;;5015140;28;20122;-55
2022/11/21 04:03:26;;;;;;;25.40;16.60;;;;;;;;;;5017273;28;20052;-52
2022/11/21 04:05:52;;;;;;;26.95;16.63;;;;;;;;;;5017577;28;20088;-53
2022/11/21 04:08:18;;;;;;;30.63;15.68;;;;;;;;;;5018795;28;20095;-53
2022/11/21 04:10:47;;;;;;;27.48;16.05;;;;;;;;;;5016012;28;20407;-53
2022/11/21 04:13:13;;;;;;;27.95;16.48;;;;;;;;;;5017134;28;20068;-53
2022/11/21 04:15:42;;;;;;;23.40;16.20;;;;;;;;;;5018100;28;20084;-54
2022/11/21 04:18:09;;;;;;;27.20;16.38;;;;;;;;;;5016072;28;20616;-53
2022/11/21 04:20:35;;;;;;;24.83;15.50;;;;;;;;;;5016579;28;20129;-54
2022/11/21 04:23:01;;;;;;;22.88;15.30;;;;;;;;;;5018959;28;20049;-54
2022/11/21 04:25:27;;;;;;;25.77;15.60;;;;;;;;;;5017335;28;20052;-53
2022/11/21 04:27:56;;;;;;;26.75;15.45;;;;;;;;;;5017237;28;20148;-53
2022/11/21 04:30:22;;;;;;;29.05;17.52;;;;;;;;;;5022716;28;20041;-54
2022/11/21 04:32:52;;;;;;;24.38;15.68;;;;;;;;;;5016455;28;20053;-53
2022/11/21 04:35:18;;;;;;;28.00;15.68;;;;;;;;;;5018373;28;20037;-51
2022/11/21 04:37:44;;;;;;;22.88;14.55;;;;;;;;;;5019345;28;20033;-53
2022/11/21 04:40:10;;;;;;;25.92;15.35;;;;;;;;;;5018792;28;20429;-52
2022/11/21 04:42:36;;;;;;;27.25;16.75;;;;;;;;;;5015514;28;20037;-52
2022/11/21 04:45:03;;;;;;;27.50;16.55;;;;;;;;;;5019527;28;20052;-53
2022/11/21 04:47:29;;;;;;;27.75;16.73;;;;;;;;;;5015941;28;20045;-53
2022/11/21 04:49:55;;;;;;;29.63;17.30;;;;;;;;;;5018277;28;20140;-53
2022/11/21 04:52:21;;;;;;;38.85;19.40;;;;;;;;;;5018449;28;20132;-54
2022/11/21 04:54:47;;;;;;;31.20;17.95;;;;;;;;;;5015440;28;20137;-54
2022/11/21 04:57:13;;;;;;;30.10;18.00;;;;;;;;;;5016249;28;20096;-52
2022/11/21 04:59:39;;;;;;;32.92;19.58;;;;;;;;;;5015165;28;20045;-51
2022/11/21 05:02:05;;;;;;;32.03;19.15;;;;;;;;;;5015416;28;21244;-54
2022/11/21 05:04:31;;;;;;;31.40;19.00;;;;;;;;;;5016230;28;20751;-54
2022/11/21 05:06:57;;;;;;;27.90;18.30;;;;;;;;;;5014574;28;20422;-53
2022/11/21 05:09:24;;;;;;;31.33;18.92;;;;;;;;;;5014372;28;20037;-52
2022/11/21 05:14:34;;;;;;;33.20;19.20;;;;;;;;;;5013986;28;20053;-52
2022/11/21 05:17:00;;;;;;;33.60;19.75;;;;;;;;;;5019261;28;20060;-53
2022/11/21 05:19:26;;;;;;;33.80;19.95;;;;;;;;;;5013676;28;20046;-54
2022/11/21 05:21:53;;;;;;;34.13;19.45;;;;;;;;;;5017183;28;20045;-53
2022/11/21 05:24:19;;;;;;;34.45;19.70;;;;;;;;;;5016240;28;20048;-51
2022/11/21 05:26:45;;;;;;;31.90;18.80;;;;;;;;;;5014990;28;20045;-51
2022/11/21 05:29:11;;;;;;;31.90;19.52;;;;;;;;;;5013980;28;20299;-54
2022/11/21 05:31:38;;;;;;;38.45;21.55;;;;;;;;;;5012778;28;20041;-55
2022/11/21 05:34:04;;;;;;;36.00;21.58;;;;;;;;;;5013232;28;20114;-53
2022/11/21 05:36:30;;;;;;;36.50;20.60;;;;;;;;;;5017219;28;20041;-51
2022/11/21 05:38:56;;;;;;;34.95;20.55;;;;;;;;;;5017536;28;20545;-54
2022/11/21 05:41:22;;;;;;;37.33;21.45;;;;;;;;;;5015953;28;20050;-52
2022/11/21 05:43:49;;;;;;;37.10;21.55;;;;;;;;;;5017106;28;20050;-51
2022/11/21 05:46:19;;;;;;;41.53;21.80;;;;;;;;;;5017612;28;20239;-54
2022/11/21 05:48:46;;;;;;;37.28;21.15;;;;;;;;;;5016210;28;20038;-53
2022/11/21 05:51:12;;;;;;;38.17;21.23;;;;;;;;;;5015997;28;20069;-55
2022/11/21 05:53:39;;;;;;;38.28;22.58;;;;;;;;;;5016094;28;20117;-54
2022/11/21 05:56:07;;;;;;;36.45;20.73;;;-1.30;99.90;;;;;;5015753;28;20053;-54
2022/11/21 05:58:33;;;;;;;40.17;21.80;;;;;;;;;;5018362;28;20045;-52
2022/11/21 06:00:59;;;;;;;39.03;22.70;;;;;;;;;;5015328;28;20049;-54
2022/11/21 06:03:26;;;;;;;38.83;21.55;;;;;;;;;;5018339;28;20087;-53
2022/11/21 06:05:53;;;;;;;33.88;20.85;;;;;;;;;;5016583;28;20136;-54
2022/11/21 06:08:19;;;;;;;37.72;21.92;;;;;;;;;;5012526;28;20044;-53
2022/11/21 06:10:45;;;;;;;35.78;20.77;;;;;;;;;;5016319;28;20045;-54
2022/11/21 06:13:23;;;;;;;32.38;19.67;;;;;;;;;;5017182;28;20041;-54
2022/11/21 06:15:49;;;;;;;33.55;19.75;;;;;;;;;;5017367;28;20107;-54
2022/11/21 06:18:16;;;;;;;34.08;19.67;;;;;;;;;;5014331;28;20042;-55
2022/11/21 06:20:42;;;;;;;30.45;19.10;;;;;;;;;;5015806;28;20057;-52
2022/11/21 06:23:08;;;;;;;34.42;18.98;;;;;;;;;;5013208;28;20052;-51
2022/11/21 06:25:34;;;;;;;33.08;19.08;;;;;;;;;;5014690;28;20034;-54
2022/11/21 06:28:00;;;;;;;31.65;19.77;;;;;;;;;;5017088;28;20084;-53
2022/11/21 06:30:27;;;;;;;34.45;21.08;;;;;;;;;;5012857;28;20057;-53
2022/11/21 06:32:53;;;;;;;29.90;17.83;;;;;;;;;;5013358;28;20173;-53
2022/11/21 06:35:19;;;;;;;28.77;17.75;;;;;;;;;;5015022;28;20689;-55
2022/11/21 06:37:45;;;;;;;30.80;18.70;;;;;;;;;;5015364;28;20041;-54
2022/11/21 06:40:11;;;;;;;32.25;19.48;;;-1.70;99.90;;;;;;5013404;28;20081;-54
2022/11/21 06:42:37;;;;;;;37.92;20.90;;;;;;;;;;5013457;28;20033;-55
2022/11/21 06:45:03;;;;;;;31.33;19.48;;;;;;;;;;5014818;28;20037;-54
2022/11/21 06:47:33;;;;;;;35.55;20.13;;;;;;;;;;5012488;28;20037;-55
2022/11/21 06:49:59;;;;;;;33.10;18.98;;;;;;;;;;5013955;28;20653;-53
2022/11/21 06:52:26;;;;;;;30.15;18.58;;;;;;;;;;5015069;28;20052;-55
2022/11/21 06:54:52;;;;;;;32.72;19.05;;;;;;;;;;5015818;28;20041;-54
2022/11/21 06:57:18;;;;;;;30.88;18.55;;;;;;;;;;5013298;28;20056;-55
2022/11/21 06:59:44;;;;;;;35.83;18.58;;;;;;;;;;5018524;28;20099;-53
2022/11/21 07:02:12;;;;;;;33.28;19.92;;;;;;;;;;5015956;28;20046;-53
2022/11/21 07:04:38;;;;;;;36.17;20.35;;;;;;;;;;5020610;28;20064;-54
2022/11/21 07:07:04;;;;;;;31.38;18.58;;;;;;;;;;5018759;28;20033;-53
2022/11/21 07:09:30;;;;;;;31.58;18.30;;;;;;;;;;5017893;28;20153;-54
2022/11/21 07:13:20;;;;;;;33.58;19.83;;;;;;;;;;5018231;28;20045;-54
2022/11/21 07:14:42;;;;;;;34.28;19.42;;;;;;;;;;5016603;28;20038;-50
2022/11/21 07:17:10;;;;;;;34.60;18.52;;;;;;;;;;5021007;28;20880;-53
2022/11/21 07:19:36;;;;;;;32.92;20.33;;;;;;;;;;5018225;28;20037;-53
2022/11/21 07:22:02;;;;;;;38.33;21.70;;;;;;;;;;5019716;28;20059;-52
2022/11/21 07:24:29;;;;;;;37.13;21.05;;;;;;;;;;5015318;28;20375;-49
2022/11/21 07:26:55;;;;;;;38.65;21.38;;;;;;;;;;5017216;28;20831;-49
2022/11/21 07:29:21;;;;;;;33.83;19.75;;;;;;;;;;5018347;28;20056;-51
2022/11/21 07:31:47;;;;;;;33.20;17.90;;;;;;;;;;5016292;28;20088;-49
2022/11/21 07:34:13;;;;;;;35.42;19.33;;;;;;;;;;5018985;28;20061;-50
2022/11/21 07:36:39;;;;;;;32.08;19.60;;;;;;;;;;5018805;28;20045;-50
2022/11/21 07:39:05;;;;;;;36.55;21.02;;;;;;;;;;5018292;28;20160;-50
2022/11/21 07:41:32;;;;;;;32.97;20.45;;;;;;;;;;5017238;28;20380;-49
2022/11/21 07:43:58;;;;;;;35.53;20.88;;;;;;;;;;5018561;28;20037;-50
2022/11/21 07:46:24;;;;;;;32.10;18.95;;;;;;;;;;5019581;28;20050;-52
2022/11/21 07:48:50;;;;;;;35.60;18.98;;;;;;;;;;5018498;28;20045;-50
2022/11/21 07:51:16;;;;;;;38.38;21.15;;;;;;;;;;5015931;28;20057;-48
2022/11/21 07:53:42;;;;;;;39.35;23.02;;;;;;;;;;5018111;28;20129;-50
2022/11/21 07:56:08;;;;;;;42.47;22.45;;;;;;;;;;5014784;28;20052;-52
2022/11/21 07:58:34;;;;;;;38.17;21.42;;;;;;;;;;5018206;28;20037;-49
2022/11/21 08:01:04;;;;;;;37.88;19.83;;;;;;;;;;5013804;28;20046;-51
2022/11/21 08:03:30;;;;;;;41.67;22.00;;;;;;;;;;5018944;28;20037;-51
2022/11/21 08:05:56;;;;;;;35.60;20.38;;;;;;;;;;5015942;28;20049;-51
2022/11/21 08:08:22;;;;;;;38.40;21.33;;;;;;;;;;5020038;28;20469;-51
2022/11/21 08:10:50;;;;;;;38.85;22.48;;;;;;;;;;5018227;28;20598;-51
2022/11/21 08:13:16;;;;;;;40.55;22.27;;;;;;;;;;5017684;28;20579;-53
2022/11/21 08:15:42;;;;;;;36.85;22.50;;;;;;;;;;5019666;28;20278;-49
2022/11/21 08:18:09;;;;;;;38.95;22.20;;;;;;;;;;5016894;28;20049;-50
2022/11/21 08:20:35;;;;;;;36.22;23.23;;;;;;;;;;5019694;28;20046;-53
2022/11/21 08:23:01;;;;;;;36.05;22.20;;;;;;;;;;5016125;28;20126;-49
2022/11/21 08:25:27;;;;;;;40.92;22.40;;;;;;;;;;5018056;28;20860;-52
2022/11/21 08:27:56;;;;;;;36.53;22.38;;;0.20;99.90;;;;;;5017607;28;20033;-50
2022/11/21 08:30:22;;;;;;;34.03;21.67;;;;;;;;;;5017394;28;20052;-51
2022/11/21 08:32:48;;;;;;;36.83;23.38;;;;;;;;;;5017870;28;20118;-52
2022/11/21 08:35:14;;;;;;;38.00;21.63;;;;;;;;;;5016757;28;20040;-53
2022/11/21 08:37:40;;;;;;;33.00;19.85;;;;;;;;;;5019948;28;20037;-52
2022/11/21 08:40:06;;;;;;;28.80;19.33;;;1.00;99.90;;;;;;5015215;28;20641;-55
2022/11/21 08:42:33;;;;;;;33.95;19.27;;;;;;;;;;5018186;28;20044;-52
2022/11/21 08:44:59;;;;;;;31.50;18.85;;;;;;;;;;5016002;28;20049;-52
2022/11/21 08:47:25;;;;;;;28.58;19.42;;;;;;;;;;5017000;28;20045;-54
2022/11/21 08:49:52;;;;;;;31.17;19.63;;;;;;;;;;5018415;28;20142;-50
2022/11/21 08:52:18;;;;;;;28.92;18.85;;;;;;;;;;5013883;28;20046;-50
2022/11/21 08:54:44;;;;;;;27.08;18.83;;;;;;;;;;5019323;28;20041;-50
2022/11/21 08:57:10;;;;;;;29.50;19.27;;;;;;;;;;5016063;28;20053;-52
2022/11/21 08:59:37;;;;;;;30.40;18.45;;;;;;;;;;5015795;28;20045;-50
2022/11/21 09:02:03;;;;;;;28.58;19.05;;;;;;;;;;5013807;28;20124;-49
2022/11/21 09:04:29;;;;;;;32.08;20.15;;;;;;;;;;5015083;28;20046;-50
2022/11/21 09:06:55;;;;;;;34.45;20.83;;;;;;;;;;5019563;28;20052;-49
2022/11/21 09:09:21;;;;;;;31.52;19.77;;;;;;;;;;5014102;28;20041;-49
2022/11/21 09:11:47;;;;;;;30.50;19.75;;;;;;;;;;5018528;28;20048;-51
2022/11/21 09:19:43;;;;;;;32.08;20.83;;;;;;;;;;5014836;28;20057;-54
2022/11/21 09:22:09;;;;;;;31.30;20.15;;;;;;;;;;5015019;28;20190;-47
2022/11/21 09:24:35;;;;;;;31.17;20.08;;;;;;;;;;5015742;28;20220;-49
2022/11/21 09:27:01;;;;;;;32.25;19.98;;;;;;;;;;5018583;28;20119;-51
2022/11/21 09:29:27;;;;;;;30.08;19.45;;;;;;;;;;5014530;28;20412;-52
2022/11/21 09:31:54;;;;;;;34.35;20.92;;;;;;;;;;5016841;28;20042;-48
2022/11/21 09:34:20;;;;;;;29.85;19.73;;;;;;;;;;5016284;28;20200;-47
2022/11/21 09:36:46;;;;;;;36.42;22.50;;;;;;;;;;5020168;28;20455;-51
2022/11/21 09:39:12;;;;;;;32.13;20.38;;;;;;;;;;5018353;28;20053;-47
2022/11/21 09:42:21;;;;;;;32.67;20.65;;;0.30;99.90;;;;;;5016146;28;20045;-53
2022/11/21 09:45:04;;;;;;;34.25;21.02;;;0.30;99.90;;;;;;5017952;28;20044;-52
2022/11/21 09:47:33;;;;;;;34.78;20.55;;;0.60;99.90;;;;;;5015675;28;20045;-51
2022/11/21 09:50:01;;;;;;;33.90;21.25;;;;;;;;;;5015830;28;20052;-49
2022/11/21 09:52:36;;;;;;;32.97;21.02;;;0.50;99.90;;;;;;5015407;28;20112;-52
2022/11/21 09:55:06;;;;;;;30.83;20.42;;;0.40;99.90;;;;;;5017749;28;20049;-48
2022/11/21 09:57:34;;;;;;;32.53;20.70;;;;;;;;;;5017715;28;20615;-48
2022/11/21 10:00:02;;;;;;;32.83;20.52;;;0.50;99.90;;;;;;5015283;28;20079;-51
2022/11/21 10:02:28;;;;;;;32.92;19.90;;;;;;;;;;5017530;28;20091;-48
2022/11/21 10:04:59;;;;;;;31.50;20.73;;;0.60;99.90;;;;;;5016168;28;20977;-52
2022/11/21 10:07:29;;;;;;;33.63;20.20;;;0.60;99.90;;;;;;5017304;28;20088;-48
2022/11/21 10:10:00;;;;;;;31.10;20.52;;;0.60;99.90;;;;;;5014640;28;20068;-50
2022/11/21 10:12:45;;;;;;;29.83;19.33;;;;;;;;;;5012841;28;20049;-52
2022/11/21 10:15:33;;;;;;;31.15;20.58;;;0.80;99.90;;;;;;5014427;28;20323;-52
2022/11/21 10:17:59;;;;;;;28.48;19.20;;;;;;;;;;5046352;28;20049;-53
2022/11/21 10:20:46;;;;;;;30.95;20.80;;;0.60;99.90;;;;;;5015719;28;20256;-55
2022/11/21 10:23:23;;;;;;;30.88;20.65;;;0.80;99.90;;;;;;5013598;28;20565;-51
2022/11/21 10:26:05;;;;;;;30.30;20.35;;;0.80;99.90;;;;;;5012810;28;20435;-53
2022/11/21 10:29:00;;;;;;;32.03;20.65;;;0.80;99.90;;;;;;5015194;28;20045;-54
2022/11/21 10:31:30;;;;;;;25.55;18.33;;;0.80;99.90;;;;;;5011884;28;20045;-52
2022/11/21 10:33:56;;;;;;;29.95;19.85;;;;;;;;;;5015803;28;20044;-53
2022/11/21 10:36:28;;;;;;;30.20;19.17;;;1.00;99.90;;;;;;5017012;28;20055;-55
2022/11/21 10:39:02;;;;;;;33.17;21.60;;;1.10;99.90;;;;;;5016924;28;20095;-55
2022/11/21 10:42:04;;;;;;;32.05;20.05;;;1.10;99.90;;;;;;5021224;28;20037;-54
2022/11/21 10:47:26;;;;;;;32.25;19.15;;;1.10;99.90;;;;;;5019603;28;20083;-55
2022/11/21 10:50:20;;;;;;;30.35;20.27;;;1.00;99.90;;;;;;5022525;28;20103;-54
2022/11/21 10:56:01;;;;;;;29.65;19.38;;;;;;;;;;5017563;28;20049;-53
2022/11/21 10:58:39;;;;;;;29.45;19.05;;;1.20;99.90;;;;;;5021896;28;20841;-54
2022/11/21 11:01:05;;;;;;;28.08;18.85;;;;;;;;;;5018357;28;20103;-54
2022/11/21 11:03:31;;;;;;;29.52;19.15;;;;;;;;;;5018829;28;20703;-49
2022/11/21 11:05:57;;;;;;;28.88;19.88;;;;;;;;;;5018129;28;20049;-54
2022/11/21 11:08:26;;;;;;;29.90;18.83;;;;;;;;;;5050984;28;20041;-53
2022/11/21 11:11:11;;;;;;;25.85;17.40;;;;;;;;;;5019705;28;20045;-53
2022/11/21 11:14:11;;;;;;;26.42;18.55;;;1.30;99.90;;;;;;5018800;28;20037;-53
2022/11/21 11:16:42;;;;;;;28.83;17.42;;;1.50;99.90;;;;;;5018922;28;20060;-53
2022/11/21 11:19:14;;;;;;;24.63;16.38;;;1.50;99.90;;;;;;5019455;28;20044;-50
2022/11/21 11:21:40;;;;;;;24.45;15.90;;;;;;;;;;5016169;28;20053;-53
2022/11/21 11:24:24;;;;;;;24.83;16.58;;;1.30;99.90;;;;;;5018775;28;20049;-52
2022/11/21 11:26:57;;;;;;;24.50;15.43;;;1.40;99.90;;;;;;5019994;28;20041;-52
2022/11/21 11:29:23;;;;;;;;;;;1.60;99.90;;;;;;5016176;28;20047;-52
2022/11/21 11:31:49;;;;;;;23.30;14.35;;;;;;;;;;5016338;28;19924;-53
2022/11/21 11:34:16;;;;;;;22.63;15.50;;;;;;;;;;5017411;28;20049;-53
2022/11/21 11:36:43;;;;;;;23.88;15.75;;;;;;;;;;5019810;28;20077;-51
2022/11/21 11:39:28;;;;;;;24.98;16.83;;;1.60;99.90;;;;;;5021416;28;20441;-52
2022/11/21 11:48:24;;;;;;;24.17;14.75;;;;;;;;;;5013469;28;20128;-53
2022/11/21 11:50:59;;;;;;;22.60;15.95;;;1.70;99.90;;;;;;5017177;28;20049;-52
2022/11/21 11:53:38;;;;;;;23.80;15.80;;;1.90;99.90;;;;;;5021414;28;20107;-52
2022/11/21 11:56:31;;;;;;;23.77;16.02;;;1.80;99.90;;;;;;5017922;28;20682;-54
2022/11/21 11:58:58;;;;;;;21.73;14.75;;;;;;;;;;5012315;28;20256;-53
2022/11/21 12:01:45;;;;;;;23.30;14.60;;;2.10;99.90;;;;;;5015676;28;20037;-54
2022/11/21 12:04:11;;;;;;;20.50;13.75;;;;;;;;;;5014024;28;20195;-52
2022/11/21 12:06:40;;;;;;;21.35;14.30;;;2.10;99.90;;;;;;5017958;28;20045;-49
2022/11/21 12:09:36;;;;;;;21.83;13.85;;;2.40;99.90;;;;;;5017143;28;20231;-54
2022/11/21 12:12:49;;;;;;;21.60;14.70;;;2.40;99.90;;;;;;5014046;28;20053;-54
2022/11/21 12:15:47;;;;;;;22.92;14.00;;;2.30;99.90;;;;;;5012692;28;20049;-49
2022/11/21 12:18:30;;;;;;;21.67;15.05;;;2.30;99.90;;;;;;5018894;28;20054;-52
2022/11/21 12:20:57;;;;;;;19.30;12.48;;;;;;;;;;5016992;28;20308;-51
2022/11/21 12:23:30;;;;;;;19.63;12.75;;;2.50;99.90;;;;;;5019338;28;20041;-52
2022/11/21 12:25:59;;;;;;;19.30;12.70;;;2.20;99.90;;;;;;5017356;28;20047;-51
2022/11/21 12:28:55;;;;;;;19.33;12.88;;;2.40;99.90;;;;;;5017836;28;20217;-48
2022/11/21 12:31:39;;;;;;;17.88;12.45;;;2.40;99.90;;;;;;5014889;28;20059;-52
2022/11/21 12:34:29;;;;;;;17.10;11.68;;;2.60;99.90;;;;;;5017397;28;20060;-54
2022/11/21 12:37:19;;;;;;;17.80;12.38;;;2.50;99.90;;;;;;5022435;28;20037;-50
2022/11/21 12:39:45;;;;;;;17.90;12.38;;;;;;;;;;5016445;28;20060;-50
2022/11/21 12:42:48;;;;;;;18.63;12.35;;;2.60;99.90;;;;;;5013655;28;20049;-54
2022/11/21 12:45:30;;;;;;;18.60;12.90;;;2.60;99.90;;;;;;5014098;28;20152;-50
2022/11/21 12:54:30;;;;;;;19.15;12.57;;;;;;;;;;5017527;28;20060;-52
2022/11/21 12:57:21;;;;;;;18.73;12.13;;;2.70;99.90;;;;;;5014747;28;20517;-53
2022/11/21 12:59:48;;;;;;;18.17;12.27;;;;;;;;;;5013244;28;20053;-55
2022/11/21 13:02:32;;;;;;;17.83;12.40;;;2.90;99.90;;;;;;5020796;28;20794;-52
2022/11/21 13:04:59;;;;;;;17.95;12.43;;;2.90;99.90;;;;;;5018169;28;20038;-55
2022/11/21 13:07:30;;;;;;;16.98;11.68;;;2.80;99.90;;;;;;5016571;28;20123;-52
2022/11/21 13:09:59;;;;;;;20.52;13.90;;;2.80;99.90;;;;;;5020310;28;20044;-51
2022/11/21 13:12:50;;;;;;;19.20;12.18;;;2.80;99.90;;;;;;5016193;28;20048;-54
2022/11/21 13:15:52;;;;;;;23.50;13.70;;;2.70;99.90;;;;;;5014231;28;20513;-53
2022/11/21 13:18:32;;;;;;;19.30;12.82;;;2.80;99.90;;;;;;5015379;28;20056;-53
2022/11/21 13:20:59;;;;;;;21.30;14.00;;;;;;;;;;5020074;28;20059;-55
2022/11/21 13:23:36;;;;;;;20.95;14.10;;;2.70;99.90;;;;;;5017088;28;20064;-55
2022/11/21 13:26:02;;;;;;;18.38;13.18;;;;;;;;;;5014806;28;20076;-54
2022/11/21 13:28:33;;;;;;;19.60;13.75;;;2.70;99.90;;;;;;5011945;28;20041;-51
2022/11/21 13:31:00;;;;;;;19.52;12.88;;;2.80;99.90;;;;;;5013265;28;20041;-53
2022/11/21 13:33:38;;;;;;;20.90;14.20;;;2.80;99.90;;;;;;5017513;28;20676;-53
2022/11/21 13:36:12;;;;;;;19.52;13.48;;;2.70;99.90;;;;;;5020229;28;20095;-55
2022/11/21 13:38:50;;;;;;;20.65;13.57;;;2.80;99.90;;;;;;5015023;28;20041;-52
2022/11/21 13:44:30;;;;;;;21.15;14.32;;;2.90;99.90;;;;;;5017392;28;20041;-55
2022/11/21 13:47:25;;;;;;;20.13;14.45;;;3.00;99.90;;;;;;5015202;28;20071;-51
2022/11/21 13:50:09;;;;;;;22.15;14.15;;;3.00;99.90;;;;;;5006542;28;20405;-54
2022/11/21 13:52:43;;;;;;;20.63;14.57;;;3.30;99.90;;;;;;5014640;28;20037;-52
2022/11/21 13:55:46;;;;;;;21.40;14.27;;;3.10;99.90;;;;;;5018993;28;20041;-53
2022/11/21 13:58:13;;;;;;;20.85;14.52;;;;;;;;;;5015135;28;20688;-55
2022/11/21 14:01:04;;;;;;;23.38;14.52;;;3.50;99.90;;;;;;5016465;28;20151;-54
2022/11/21 14:04:03;;;;;;;22.10;15.68;;;3.30;99.90;;;;;;5018783;28;20142;-55
2022/11/21 14:06:36;;;;;;;25.05;16.25;;;3.30;99.90;;;;;;5013658;28;20045;-54
2022/11/21 14:09:20;;;;;;;;;;;5.40;99.90;;;;;;5017461;28;20083;-54
2022/11/21 14:12:05;;;;;;;23.00;15.75;;;3.30;99.90;;;;;;5014053;28;20565;-53
2022/11/21 14:14:31;;;;;;;22.52;15.85;;;;;;;;;;5013772;28;20038;-55
2022/11/21 14:17:35;;;;;;;25.05;16.92;;;3.30;99.90;;;;;;5016869;28;20040;-53
2022/11/21 14:20:27;;;;;;;24.98;16.73;;;3.50;99.90;;;;;;5013361;28;20518;-53
2022/11/21 14:22:53;;;;;;;25.25;15.90;;;;;;;;;;5015801;28;20135;-52
2022/11/21 14:25:32;;;;;;;25.98;16.80;;;3.40;99.90;;;;;;5015744;28;20049;-55
2022/11/21 14:27:58;;;;;;;25.52;15.88;;;;;;;;;;5011708;28;20037;-55
2022/11/21 14:30:32;;;;;;;25.40;16.85;;;3.60;99.90;;;;;;5014580;28;20037;-55
2022/11/21 14:33:42;;;;;;;25.00;16.88;;;3.60;99.90;;;;;;5013527;28;20049;-55
2022/11/21 14:36:18;;;;;;;28.10;18.67;;;3.50;99.90;;;;;;5012428;28;20059;-56
2022/11/21 14:38:44;;;;;;;26.70;17.67;;;;;;;;;;5014545;28;20445;-55
2022/11/21 14:41:24;;;;;;;26.63;17.55;;;3.50;99.90;;;;;;5014781;28;20034;-53